createdAt,value
2022-11-19T00:01:25.061Z,91.95
2022-11-19T00:03:53.225Z,91.17
2022-11-19T00:06:25.433Z,91.61
2022-11-19T00:08:52.357Z,91.55
2022-11-19T00:11:42.183Z,91.47
2022-11-19T00:14:12.457Z,91.24
2022-11-19T00:16:40.453Z,91.41
2022-11-19T00:19:07.832Z,90.88
2022-11-19T00:21:34.665Z,91.19
2022-11-19T00:24:01.597Z,91.20
2022-11-19T00:26:28.469Z,91.13
2022-11-19T00:28:55.640Z,91.21
2022-11-19T00:31:22.711Z,91.42
2022-11-19T00:33:50.875Z,91.98
2022-11-19T00:36:18.070Z,91.38
2022-11-19T00:38:45.114Z,91.25
2022-11-19T00:41:12.198Z,90.99
2022-11-19T00:43:48.735Z,91.11
2022-11-19T00:46:21.845Z,91.22
2022-11-19T00:48:50.395Z,90.87
2022-11-19T00:51:18.509Z,90.43
2022-11-19T00:53:45.582Z,90.44
2022-11-19T00:56:15.986Z,90.43
2022-11-19T00:58:43.571Z,90.16
2022-11-19T01:01:12.377Z,89.58
2022-11-19T01:03:40.282Z,89.69
2022-11-19T01:06:08.870Z,89.64
2022-11-19T01:08:36.191Z,89.09
2022-11-19T01:11:12.376Z,88.51
2022-11-19T01:13:39.296Z,88.78
2022-11-19T01:16:10.605Z,87.97
2022-11-19T01:18:38.666Z,87.98
2022-11-19T01:21:07.019Z,87.05
2022-11-19T01:23:34.135Z,86.62
2022-11-19T01:26:01.925Z,86.87
2022-11-19T01:28:29.416Z,86.77
2022-11-19T01:30:56.639Z,86.84
2022-11-19T01:33:23.947Z,86.32
2022-11-19T01:36:01.881Z,86.47
2022-11-19T01:38:29.633Z,87.00
2022-11-19T01:40:57.859Z,87.13
2022-11-19T01:43:46.077Z,87.18
2022-11-19T01:46:15.874Z,86.83
2022-11-19T01:49:02.957Z,86.36
2022-11-19T01:51:49.941Z,86.49
2022-11-19T01:54:30.283Z,86.42
2022-11-19T01:57:02.191Z,86.64
2022-11-19T01:59:31.302Z,87.07
2022-11-19T02:01:58.303Z,86.86
2022-11-19T02:04:26.036Z,86.95
2022-11-19T02:06:54.200Z,86.66
2022-11-19T02:09:21.974Z,87.18
2022-11-19T02:11:54.728Z,87.31
2022-11-19T02:14:54.853Z,87.20
2022-11-19T02:17:46.934Z,87.31
2022-11-19T02:20:57.104Z,87.93
2022-11-19T02:23:46.216Z,87.97
2022-11-19T02:26:44.670Z,87.70
2022-11-19T02:29:30.214Z,87.51
2022-11-19T02:32:16.888Z,87.04
2022-11-19T02:34:55.128Z,86.78
2022-11-19T02:37:40.964Z,86.36
2022-11-19T02:40:15.639Z,86.73
2022-11-19T02:43:08.499Z,86.96
2022-11-19T02:45:39.981Z,86.69
2022-11-19T02:48:10.300Z,86.88
2022-11-19T02:50:45.334Z,87.44
2022-11-19T02:53:12.400Z,87.06
2022-11-19T02:55:40.118Z,86.17
2022-11-19T02:58:31.948Z,85.03
2022-11-19T03:01:19.553Z,82.70
2022-11-19T03:04:05.792Z,81.55
2022-11-19T03:25:56.557Z,82.94
2022-11-19T03:28:30.583Z,82.64
2022-11-19T03:31:00.429Z,82.12
2022-11-19T03:33:33.892Z,82.45
2022-11-19T03:36:24.361Z,81.88
2022-11-19T03:38:55.754Z,81.79
2022-11-19T03:41:24.628Z,81.70
2022-11-19T03:44:07.076Z,81.86
2022-11-19T03:46:37.286Z,82.04
2022-11-19T03:49:06.950Z,82.19
2022-11-19T03:52:00.017Z,81.64
2022-11-19T03:54:27.663Z,81.83
2022-11-19T03:56:55.763Z,81.32
2022-11-19T03:59:29.189Z,80.81
2022-11-19T04:02:01.649Z,79.87
2022-11-19T04:04:37.831Z,79.54
2022-11-19T04:07:08.927Z,78.54
2022-11-19T04:09:35.986Z,78.04
2022-11-19T04:12:03.456Z,77.46
2022-11-19T04:14:30.465Z,76.59
2022-11-19T04:16:57.494Z,76.38
2022-11-19T04:19:24.841Z,75.84
2022-11-19T04:21:51.986Z,75.61
2022-11-19T04:24:19.130Z,75.41
2022-11-19T04:26:45.866Z,75.86
2022-11-19T04:29:12.693Z,75.51
2022-11-19T04:31:39.566Z,74.74
2022-11-19T04:34:06.584Z,74.91
2022-11-19T04:36:34.226Z,74.44
2022-11-19T04:39:01.410Z,75.20
2022-11-19T04:41:28.507Z,75.64
2022-11-19T04:43:55.263Z,76.32
2022-11-19T04:46:22.167Z,76.66
2022-11-19T04:48:49.052Z,76.39
2022-11-19T04:51:15.994Z,76.69
2022-11-19T04:53:42.886Z,76.86
2022-11-19T04:56:09.809Z,76.98
2022-11-19T04:58:37.234Z,77.38
2022-11-19T05:01:04.380Z,77.20
2022-11-19T05:03:31.448Z,77.66
2022-11-19T05:05:58.375Z,78.60
2022-11-19T05:08:25.639Z,78.69
2022-11-19T05:10:52.680Z,79.47
2022-11-19T05:13:19.567Z,80.44
2022-11-19T05:15:46.772Z,81.17
2022-11-19T05:18:14.122Z,81.46
2022-11-19T05:20:40.911Z,81.79
2022-11-19T05:23:07.865Z,81.53
2022-11-19T05:25:34.809Z,81.06
2022-11-19T05:28:01.800Z,81.31
2022-11-19T05:30:28.653Z,80.85
2022-11-19T05:32:55.544Z,80.05
2022-11-19T05:35:22.683Z,79.32
2022-11-19T05:37:50.445Z,79.22
2022-11-19T05:40:18.427Z,79.08
2022-11-19T05:42:45.460Z,79.39
2022-11-19T05:45:13.044Z,79.59
2022-11-19T05:47:43.346Z,78.90
2022-11-19T05:50:12.778Z,79.48
2022-11-19T05:52:39.549Z,79.30
2022-11-19T05:55:06.746Z,79.47
2022-11-19T05:57:33.632Z,79.28
2022-11-19T06:00:00.486Z,75.42
2022-11-19T06:02:27.389Z,72.65
2022-11-19T06:04:54.462Z,69.70
2022-11-19T06:07:21.337Z,65.96
2022-11-19T06:09:48.312Z,64.16
2022-11-19T06:12:15.098Z,64.98
2022-11-19T06:14:42.166Z,65.76
2022-11-19T06:17:09.448Z,64.01
2022-11-19T06:19:36.292Z,61.88
2022-11-19T06:22:03.133Z,59.10
2022-11-19T06:24:30.097Z,55.97
2022-11-19T06:26:56.953Z,53.72
2022-11-19T06:29:23.890Z,55.45
2022-11-19T06:31:50.745Z,55.99
2022-11-19T06:34:17.694Z,54.07
2022-11-19T06:36:50.110Z,52.80
2022-11-19T06:39:17.658Z,50.71
2022-11-19T06:41:44.665Z,51.73
2022-11-19T06:44:11.550Z,51.07
2022-11-19T06:46:38.536Z,53.29
2022-11-19T06:49:05.983Z,54.45
2022-11-19T06:51:33.553Z,55.40
2022-11-19T06:54:00.535Z,56.80
2022-11-19T06:56:27.549Z,55.27
2022-11-19T06:58:57.533Z,50.96
2022-11-19T07:01:24.503Z,47.06
2022-11-19T07:03:51.371Z,42.59
2022-11-19T07:06:18.313Z,41.58
2022-11-19T07:08:45.317Z,38.82
2022-11-19T07:11:27.224Z,40.29
2022-11-19T07:13:57.913Z,42.79
2022-11-19T07:16:26.437Z,41.74
2022-11-19T07:18:53.312Z,42.71
2022-11-19T07:21:20.255Z,43.99
2022-11-19T07:23:47.142Z,43.88
2022-11-19T07:26:15.055Z,43.26
2022-11-19T07:28:42.106Z,41.50
2022-11-19T07:31:09.551Z,41.09
2022-11-19T07:33:39.166Z,36.86
2022-11-19T07:36:08.311Z,37.03
2022-11-19T07:38:37.170Z,37.23
2022-11-19T07:41:24.237Z,39.14
2022-11-19T07:43:51.631Z,41.50
2022-11-19T07:46:18.601Z,43.94
2022-11-19T07:48:45.544Z,45.38
2022-11-19T07:51:12.389Z,45.60
2022-11-19T07:53:39.214Z,43.84
2022-11-19T07:56:06.166Z,44.50
2022-11-19T07:58:33.104Z,41.95
2022-11-19T08:01:10.755Z,42.15
2022-11-19T08:03:37.621Z,43.30
2022-11-19T08:06:08.058Z,43.19
2022-11-19T08:08:34.871Z,44.82
2022-11-19T08:11:06.546Z,46.38
2022-11-19T08:13:34.189Z,46.53
2022-11-19T08:16:06.128Z,47.49
2022-11-19T08:18:33.233Z,46.59
2022-11-19T08:21:18.035Z,47.56
2022-11-19T08:23:44.878Z,45.56
2022-11-19T08:26:11.677Z,44.03
2022-11-19T08:28:38.530Z,43.23
2022-11-19T08:31:07.918Z,42.33
2022-11-19T08:33:35.365Z,44.06
2022-11-19T08:36:02.700Z,40.06
2022-11-19T08:38:33.312Z,41.25
2022-11-19T08:41:21.341Z,41.18
2022-11-19T08:43:48.484Z,37.99
2022-11-19T08:46:15.295Z,33.58
2022-11-19T08:48:42.132Z,32.70
2022-11-19T08:51:14.775Z,32.74
2022-11-19T08:53:41.638Z,31.99
2022-11-19T08:56:09.596Z,32.90
2022-11-19T08:58:37.731Z,35.26
2022-11-19T09:01:16.236Z,36.74
2022-11-19T09:03:43.904Z,41.75
2022-11-19T09:06:12.054Z,43.01
2022-11-19T09:08:39.704Z,45.33
2022-11-19T09:11:26.829Z,47.82
2022-11-19T09:13:53.682Z,47.46
2022-11-19T09:16:20.605Z,46.05
2022-11-19T09:18:47.394Z,48.92
2022-11-19T09:21:16.559Z,49.44
2022-11-19T09:23:43.508Z,48.52
2022-11-19T09:26:15.669Z,46.57
2022-11-19T09:28:43.429Z,46.11
2022-11-19T09:31:13.400Z,44.84
2022-11-19T09:33:42.335Z,44.21
2022-11-19T09:36:11.355Z,43.33
2022-11-19T09:38:40.199Z,38.19
2022-11-19T09:41:22.119Z,32.79
2022-11-19T09:44:07.365Z,30.61
2022-11-19T09:47:15.651Z,30.33
2022-11-19T09:50:03.126Z,33.13
2022-11-19T09:52:35.723Z,34.32
2022-11-19T09:55:03.491Z,37.00
2022-11-19T09:57:38.261Z,39.27
2022-11-19T10:00:06.636Z,40.68
2022-11-19T10:02:38.447Z,40.45
2022-11-19T10:05:05.723Z,41.40
2022-11-19T10:07:35.303Z,40.00
2022-11-19T10:10:02.117Z,40.69
2022-11-19T10:12:48.512Z,40.43
2022-11-19T10:15:28.653Z,40.11
2022-11-19T10:18:04.005Z,39.17
2022-11-19T10:21:09.690Z,38.26
2022-11-19T10:24:00.870Z,34.96
2022-11-19T10:26:35.508Z,32.37
2022-11-19T10:29:11.136Z,32.06
2022-11-19T10:31:43.910Z,32.59
2022-11-19T10:34:33.769Z,31.64
2022-11-19T10:37:07.989Z,29.53
2022-11-19T10:40:01.072Z,27.98
2022-11-19T10:42:45.161Z,29.13
2022-11-19T10:45:19.375Z,29.21
2022-11-19T10:48:12.565Z,29.42
2022-11-19T10:50:40.053Z,28.40
2022-11-19T10:53:27.324Z,28.57
2022-11-19T10:56:00.585Z,28.32
2022-11-19T10:58:38.273Z,24.97
2022-11-19T11:01:32.578Z,25.79
2022-11-19T11:04:23.763Z,25.11
2022-11-19T11:06:59.728Z,24.77
2022-11-19T11:09:41.456Z,25.35
2022-11-19T11:12:39.142Z,23.38
2022-11-19T11:15:15.672Z,23.56
2022-11-19T11:17:44.823Z,26.96
2022-11-19T11:20:17.524Z,29.58
2022-11-19T11:22:47.014Z,29.22
2022-11-19T11:25:27.243Z,28.22
2022-11-19T11:28:03.573Z,29.88
2022-11-19T11:30:30.447Z,31.82
2022-11-19T11:32:57.365Z,32.82
2022-11-19T11:35:38.548Z,32.19
2022-11-19T11:38:05.777Z,32.84
2022-11-19T11:40:32.776Z,34.50
2022-11-19T11:42:59.862Z,36.46
2022-11-19T11:45:34.120Z,37.49
2022-11-19T11:48:08.089Z,35.57
2022-11-19T11:50:37.261Z,32.13
2022-11-19T11:53:10.388Z,26.97
2022-11-19T11:55:38.773Z,25.68
2022-11-19T11:58:24.259Z,26.85
2022-11-19T12:01:15.437Z,30.18
2022-11-19T12:03:57.900Z,26.52
2022-11-19T12:06:29.297Z,22.74
2022-11-19T12:09:07.969Z,20.51
2022-11-19T12:12:23.839Z,20.18
2022-11-19T12:15:09.940Z,19.01
2022-11-19T12:17:57.468Z,18.15
2022-11-19T12:20:53.989Z,19.77
2022-11-19T12:23:42.599Z,23.46
2022-11-19T12:26:46.546Z,26.32
2022-11-19T12:29:36.502Z,30.13
2022-11-19T12:32:42.246Z,32.16
2022-11-19T12:35:23.001Z,35.07
2022-11-19T12:38:07.734Z,36.43
2022-11-19T12:41:21.568Z,37.52
2022-11-19T12:43:58.702Z,37.52
2022-11-19T12:46:25.471Z,39.34
2022-11-19T12:48:55.346Z,39.67
2022-11-19T12:51:45.651Z,39.80
2022-11-19T12:54:35.539Z,40.06
2022-11-19T12:57:02.421Z,40.96
2022-11-19T12:59:50.543Z,40.72
2022-11-19T13:02:28.054Z,41.21
2022-11-19T13:05:01.522Z,42.40
2022-11-19T13:07:36.010Z,43.03
2022-11-19T13:10:12.050Z,42.97
2022-11-19T13:12:46.648Z,42.83
2022-11-19T13:15:43.576Z,43.25
2022-11-19T13:18:16.472Z,43.19
2022-11-19T13:20:55.902Z,44.19
2022-11-19T13:23:31.386Z,44.20
2022-11-19T13:26:06.230Z,44.96
2022-11-19T13:28:54.181Z,45.16
2022-11-19T13:31:29.936Z,46.29
2022-11-19T13:34:17.017Z,46.11
2022-11-19T13:36:53.894Z,46.55
2022-11-19T13:39:31.355Z,46.76
2022-11-19T13:42:19.498Z,47.86
2022-11-19T13:44:46.659Z,48.37
2022-11-19T13:47:31.121Z,48.82
2022-11-19T13:50:13.674Z,48.93
2022-11-19T13:53:05.375Z,48.87
2022-11-19T13:55:36.633Z,48.84
2022-11-19T13:58:11.866Z,49.67
2022-11-19T14:00:39.248Z,49.92
2022-11-19T14:03:07.432Z,50.77
2022-11-19T14:06:05.214Z,50.87
2022-11-19T14:08:47.010Z,51.48
2022-11-19T14:11:50.065Z,51.84
2022-11-19T14:14:57.797Z,52.88
2022-11-19T14:17:46.243Z,53.45
2022-11-19T14:20:54.417Z,53.23
2022-11-19T14:24:05.606Z,53.48
2022-11-19T14:26:41.704Z,53.09
2022-11-19T14:29:26.914Z,53.72
2022-11-19T14:32:03.180Z,54.49
2022-11-19T14:34:35.573Z,54.36
2022-11-19T14:37:11.085Z,54.41
2022-11-19T14:39:44.629Z,54.52
2022-11-19T14:42:18.448Z,54.91
2022-11-19T14:44:46.718Z,56.03
2022-11-19T14:47:22.445Z,56.07
2022-11-19T14:49:51.849Z,56.45
2022-11-19T14:52:31.677Z,57.03
2022-11-19T14:55:07.256Z,57.63
2022-11-19T14:57:42.478Z,59.63
2022-11-19T15:00:15.998Z,61.15
2022-11-19T15:02:50.382Z,62.30
2022-11-19T15:05:28.135Z,64.55
2022-11-19T15:08:16.397Z,66.97
2022-11-19T15:11:06.034Z,68.64
2022-11-19T15:28:20.649Z,78.30
2022-11-19T15:31:04.080Z,77.64
2022-11-19T15:33:49.244Z,75.96
2022-11-19T15:36:45.807Z,73.74
2022-11-19T15:39:26.613Z,72.92
2022-11-19T15:42:03.272Z,71.21
2022-11-19T15:44:57.537Z,71.79
2022-11-19T15:47:48.582Z,70.90
2022-11-19T15:50:24.666Z,71.74
2022-11-19T15:53:03.223Z,71.64
2022-11-19T15:55:31.404Z,71.80
2022-11-19T15:58:13.811Z,72.60
2022-11-19T16:00:50.077Z,73.99
2022-11-19T16:03:17.971Z,76.86
2022-11-19T16:06:00.941Z,78.21
2022-11-19T16:08:28.467Z,79.41
2022-11-19T16:11:20.333Z,84.41
2022-11-19T16:14:11.429Z,87.30
2022-11-19T16:16:57.472Z,88.43
2022-11-19T16:19:24.614Z,88.90
2022-11-19T16:21:56.711Z,90.12
2022-11-19T16:24:44.882Z,90.75
2022-11-19T16:27:18.978Z,90.89
2022-11-19T16:29:46.623Z,91.06
2022-11-19T16:32:22.654Z,91.16
2022-11-19T16:34:49.565Z,90.22
2022-11-19T16:37:20.754Z,89.63
2022-11-19T16:39:53.222Z,89.05
2022-11-19T16:42:26.569Z,89.28
2022-11-19T16:44:56.730Z,89.03
2022-11-19T16:47:33.000Z,90.19
2022-11-19T16:50:18.674Z,90.55
2022-11-19T16:52:45.512Z,90.65
2022-11-19T16:55:18.316Z,90.51
2022-11-19T16:57:50.790Z,89.95
2022-11-19T17:00:23.350Z,89.03
2022-11-19T17:02:51.740Z,90.11
2022-11-19T17:05:23.237Z,89.77
2022-11-19T17:07:52.494Z,90.15
2022-11-19T17:10:22.954Z,90.51
2022-11-19T17:12:59.861Z,90.96
2022-11-19T17:15:37.325Z,91.00
2022-11-19T17:18:10.292Z,91.74
2022-11-19T17:20:37.026Z,92.53
2022-11-19T17:23:14.061Z,92.76
2022-11-19T17:25:52.570Z,92.35
2022-11-19T17:28:41.237Z,91.68
2022-11-19T17:31:26.653Z,91.61
2022-11-19T17:34:14.096Z,91.26
2022-11-19T17:36:42.545Z,90.97
2022-11-19T17:39:12.022Z,90.30
2022-11-19T17:41:58.670Z,90.23
2022-11-19T17:44:39.229Z,90.09
2022-11-19T17:47:23.793Z,90.38
2022-11-19T17:49:52.142Z,90.33
2022-11-19T17:52:22.780Z,90.67
2022-11-19T17:54:50.850Z,90.16
2022-11-19T17:57:17.681Z,90.85
2022-11-19T17:59:44.559Z,91.52
2022-11-19T18:02:20.161Z,92.19
2022-11-19T18:04:48.207Z,92.91
2022-11-19T18:07:15.197Z,93.55
2022-11-19T18:09:42.507Z,93.91
2022-11-19T18:12:18.602Z,95.25
2022-11-19T18:14:46.453Z,96.40
2022-11-19T18:17:15.081Z,97.04
2022-11-19T18:19:42.188Z,97.04
2022-11-19T18:22:18.559Z,97.33
2022-11-19T18:24:50.367Z,98.03
2022-11-19T18:27:17.784Z,98.01
2022-11-19T18:29:45.194Z,97.78
2022-11-19T18:32:12.508Z,98.11
2022-11-19T18:34:39.308Z,98.02
2022-11-19T18:37:06.220Z,97.62
2022-11-19T18:39:32.989Z,96.79
2022-11-19T18:41:59.797Z,97.18
2022-11-19T18:44:35.526Z,98.36
2022-11-19T18:47:07.654Z,98.54
2022-11-19T18:49:35.230Z,97.95
2022-11-19T18:52:11.850Z,97.87
2022-11-19T18:54:38.708Z,97.57
2022-11-19T18:57:05.520Z,97.78
2022-11-19T18:59:32.337Z,97.52
2022-11-19T19:01:59.222Z,98.00
2022-11-19T19:04:26.458Z,97.45
2022-11-19T19:06:53.364Z,97.98
2022-11-19T19:09:20.942Z,97.68
2022-11-19T19:12:12.632Z,96.21
2022-11-19T19:14:40.839Z,95.32
2022-11-19T19:17:08.244Z,94.66
2022-11-19T19:19:35.709Z,94.66
2022-11-19T19:22:02.591Z,94.17
2022-11-19T19:24:30.579Z,93.44
2022-11-19T19:26:57.404Z,93.19
2022-11-19T19:29:24.571Z,92.10
2022-11-19T19:31:52.164Z,91.43
2022-11-19T19:34:19.726Z,91.28
2022-11-19T19:36:51.779Z,91.12
2022-11-19T19:39:20.464Z,91.84
2022-11-19T19:41:49.254Z,92.15
2022-11-19T19:44:16.681Z,92.21
2022-11-19T19:46:43.771Z,91.67
2022-11-19T19:49:10.631Z,91.57
2022-11-19T19:51:37.445Z,91.91
2022-11-19T19:54:04.328Z,91.80
2022-11-19T19:56:32.644Z,92.23
2022-11-19T19:59:02.680Z,92.63
2022-11-19T20:01:34.899Z,92.07
2022-11-19T20:04:11.301Z,93.35
2022-11-19T20:06:41.979Z,93.03
2022-11-19T20:09:09.765Z,93.12
2022-11-19T20:11:37.653Z,92.79
2022-11-19T20:14:05.057Z,93.18
2022-11-19T20:16:33.510Z,93.47
2022-11-19T20:19:02.072Z,93.94
2022-11-19T20:21:34.208Z,93.23
2022-11-19T20:24:07.174Z,93.16
2022-11-19T20:27:17.201Z,93.55
2022-11-19T20:29:57.735Z,93.31
2022-11-19T20:32:34.186Z,94.16
2022-11-19T20:35:02.883Z,94.29
2022-11-19T20:37:36.515Z,93.77
2022-11-19T20:40:13.993Z,93.85
2022-11-19T20:46:12.226Z,93.53
2022-11-19T20:48:42.866Z,94.11
2022-11-19T20:51:24.169Z,94.00
2022-11-19T20:53:54.819Z,94.54
2022-11-19T20:56:22.362Z,94.16
2022-11-19T20:58:49.688Z,94.64
2022-11-19T21:01:18.556Z,94.36
2022-11-19T21:03:47.260Z,94.21
2022-11-19T21:06:14.485Z,95.13
2022-11-19T21:08:44.541Z,95.06
2022-11-19T21:11:15.733Z,94.57
2022-11-19T21:13:48.790Z,94.83
2022-11-19T21:16:19.631Z,95.07
2022-11-19T21:18:47.057Z,94.53
2022-11-19T21:21:15.776Z,95.63
2022-11-19T21:23:43.319Z,95.47
2022-11-19T21:26:16.531Z,95.72
2022-11-19T21:28:47.682Z,96.04
2022-11-19T21:31:16.268Z,96.40
2022-11-19T21:33:43.649Z,95.51
2022-11-19T21:36:10.668Z,95.42
2022-11-19T21:38:37.493Z,96.07
2022-11-19T21:41:05.515Z,95.47
2022-11-19T21:43:32.612Z,95.49
2022-11-19T21:45:59.517Z,95.34
2022-11-19T21:48:27.062Z,95.46
2022-11-19T21:50:54.236Z,95.70
2022-11-19T21:53:21.381Z,95.43
2022-11-19T21:55:49.298Z,95.55
2022-11-19T21:58:16.775Z,95.38
2022-11-19T22:00:46.754Z,96.28
2022-11-19T22:03:14.343Z,96.09
2022-11-19T22:05:42.552Z,94.96
2022-11-19T22:08:09.407Z,94.63
2022-11-19T22:10:38.335Z,94.34
2022-11-19T22:13:08.266Z,95.28
2022-11-19T22:15:35.167Z,94.74
2022-11-19T22:18:02.051Z,94.37
2022-11-19T22:20:28.842Z,94.24
2022-11-19T22:22:57.133Z,93.78
2022-11-19T22:25:24.152Z,94.01
2022-11-19T22:27:50.923Z,94.22
2022-11-19T22:30:17.828Z,94.83
2022-11-19T22:32:44.751Z,94.45
2022-11-19T22:35:11.742Z,95.29
2022-11-19T22:37:38.537Z,95.85
2022-11-19T22:40:05.963Z,95.29
2022-11-19T22:42:32.814Z,96.52
2022-11-19T22:44:59.657Z,95.79
2022-11-19T22:47:26.442Z,95.47
2022-11-19T22:49:53.341Z,95.46
2022-11-19T22:52:20.260Z,95.91
2022-11-19T22:54:47.169Z,96.05
2022-11-19T22:57:14.081Z,96.83
2022-11-19T22:59:40.841Z,96.66
2022-11-19T23:02:07.738Z,96.18
2022-11-19T23:04:34.538Z,97.38
2022-11-19T23:07:01.634Z,96.63
2022-11-19T23:09:28.520Z,95.98
2022-11-19T23:12:13.796Z,95.90
2022-11-19T23:14:42.205Z,96.19
2022-11-19T23:17:09.171Z,95.08
2022-11-19T23:19:37.459Z,94.18
2022-11-19T23:22:04.352Z,93.14
2022-11-19T23:24:31.197Z,92.95
2022-11-19T23:26:57.996Z,92.33
2022-11-19T23:29:24.854Z,91.90
2022-11-19T23:31:51.891Z,91.25
2022-11-19T23:34:18.703Z,90.52
2022-11-19T23:36:45.553Z,90.40
2022-11-19T23:39:17.182Z,89.30
2022-11-19T23:41:44.773Z,89.59
2022-11-19T23:44:11.658Z,89.66
2022-11-19T23:46:38.944Z,89.19
2022-11-19T23:49:06.244Z,88.49
2022-11-19T23:51:36.130Z,88.61
2022-11-19T23:54:03.554Z,89.64
2022-11-19T23:56:32.792Z,90.21
2022-11-19T23:59:01.649Z,89.69
